createdAt,value
2022-11-26T00:01:36.204Z,15.98
2022-11-26T00:04:04.668Z,14.65
2022-11-26T00:06:36.746Z,15.73
2022-11-26T00:09:07.467Z,16.33
2022-11-26T00:11:37.194Z,17.85
2022-11-26T00:14:05.897Z,15.55
2022-11-26T00:16:33.000Z,15.43
2022-11-26T00:19:00.090Z,15.57
2022-11-26T00:21:27.617Z,16.80
2022-11-26T00:23:55.639Z,15.63
2022-11-26T00:26:24.037Z,16.02
2022-11-26T00:28:53.328Z,16.13
2022-11-26T00:31:20.876Z,16.10
2022-11-26T00:33:48.691Z,16.27
2022-11-26T00:36:30.656Z,16.55
2022-11-26T00:39:06.054Z,16.23
2022-11-26T00:41:38.606Z,17.05
2022-11-26T00:44:17.032Z,16.88
2022-11-26T00:46:43.729Z,17.65
2022-11-26T00:49:10.312Z,16.35
2022-11-26T00:51:37.174Z,16.73
2022-11-26T00:54:04.658Z,16.65
2022-11-26T00:56:36.609Z,17.30
2022-11-26T00:59:04.999Z,17.33
2022-11-26T01:01:33.302Z,16.42
2022-11-26T01:04:03.235Z,17.02
2022-11-26T01:06:34.075Z,15.15
2022-11-26T01:09:07.694Z,15.93
2022-11-26T01:11:34.841Z,16.02
2022-11-26T01:14:02.788Z,17.55
2022-11-26T01:16:31.689Z,16.92
2022-11-26T01:19:00.805Z,16.60
2022-11-26T01:21:29.624Z,17.52
2022-11-26T01:23:57.104Z,16.27
2022-11-26T01:26:32.597Z,16.98
2022-11-26T01:28:59.874Z,17.38
2022-11-26T01:31:28.689Z,17.88
2022-11-26T01:33:58.947Z,16.85
2022-11-26T01:36:25.858Z,17.08
2022-11-26T01:38:57.746Z,18.05
2022-11-26T01:41:46.860Z,18.58
2022-11-26T01:44:20.080Z,17.48
2022-11-26T01:46:47.915Z,18.00
2022-11-26T01:49:18.993Z,17.60
2022-11-26T01:51:47.535Z,18.75
2022-11-26T01:54:16.703Z,17.92
2022-11-26T01:56:50.680Z,18.73
2022-11-26T01:59:30.265Z,17.42
2022-11-26T02:01:59.893Z,17.20
2022-11-26T02:04:29.719Z,20.20
2022-11-26T02:06:58.263Z,18.42
2022-11-26T02:09:27.212Z,18.33
2022-11-26T02:11:54.625Z,19.63
2022-11-26T02:14:24.629Z,18.25
2022-11-26T02:17:37.538Z,18.42
2022-11-26T02:20:34.184Z,19.45
2022-11-26T02:23:32.782Z,19.45
2022-11-26T02:26:36.726Z,18.98
2022-11-26T02:29:32.821Z,20.50
2022-11-26T02:32:16.999Z,19.83
2022-11-26T02:34:55.795Z,20.98
2022-11-26T02:37:30.927Z,21.90
2022-11-26T02:39:59.129Z,22.83
2022-11-26T02:42:30.102Z,23.42
2022-11-26T02:45:00.227Z,22.88
2022-11-26T02:47:29.081Z,22.88
2022-11-26T02:49:59.402Z,24.05
2022-11-26T02:52:27.910Z,24.75
2022-11-26T02:54:56.879Z,23.20
2022-11-26T02:57:27.817Z,24.25
2022-11-26T02:59:55.760Z,25.05
2022-11-26T03:02:36.423Z,25.17
2022-11-26T03:05:04.763Z,23.85
2022-11-26T03:07:34.073Z,24.88
2022-11-26T03:10:02.438Z,24.77
2022-11-26T03:12:33.549Z,23.33
2022-11-26T03:15:00.985Z,27.20
2022-11-26T03:17:28.361Z,23.65
2022-11-26T03:19:56.645Z,24.98
2022-11-26T03:22:24.270Z,24.35
2022-11-26T03:24:51.765Z,23.33
2022-11-26T03:27:19.963Z,24.17
2022-11-26T03:29:51.090Z,25.20
2022-11-26T03:32:18.606Z,24.08
2022-11-26T03:34:45.551Z,24.00
2022-11-26T03:37:12.644Z,26.38
2022-11-26T03:39:40.056Z,25.63
2022-11-26T03:42:07.641Z,24.27
2022-11-26T03:44:34.593Z,26.15
2022-11-26T03:47:01.530Z,24.30
2022-11-26T03:49:28.653Z,25.08
2022-11-26T03:51:55.831Z,25.75
2022-11-26T03:54:23.126Z,24.25
2022-11-26T03:56:50.254Z,26.08
2022-11-26T03:59:17.391Z,24.63
2022-11-26T04:01:44.743Z,24.45
2022-11-26T04:04:11.858Z,25.98
2022-11-26T04:06:38.733Z,24.15
2022-11-26T04:09:05.950Z,23.88
2022-11-26T04:11:33.088Z,23.85
2022-11-26T04:14:00.976Z,23.80
2022-11-26T04:16:27.933Z,22.45
2022-11-26T04:18:55.710Z,24.38
2022-11-26T04:21:22.878Z,24.38
2022-11-26T04:23:50.222Z,24.98
2022-11-26T04:26:17.344Z,23.58
2022-11-26T04:28:46.150Z,23.35
2022-11-26T04:31:13.312Z,24.23
2022-11-26T04:33:40.792Z,24.23
2022-11-26T04:36:08.343Z,23.85
2022-11-26T04:38:35.656Z,24.25
2022-11-26T04:41:02.726Z,23.67
2022-11-26T04:43:30.288Z,23.08
2022-11-26T04:45:57.367Z,22.25
2022-11-26T04:48:25.091Z,23.05
2022-11-26T04:50:52.172Z,21.92
2022-11-26T04:53:22.134Z,21.67
2022-11-26T04:55:55.458Z,20.75
2022-11-26T04:58:22.733Z,18.75
2022-11-26T05:00:51.261Z,20.83
2022-11-26T05:03:20.660Z,20.67
2022-11-26T05:05:49.683Z,21.15
2022-11-26T05:08:16.529Z,19.13
2022-11-26T05:10:44.501Z,19.70
2022-11-26T05:13:12.050Z,18.27
2022-11-26T05:15:39.410Z,20.20
2022-11-26T05:18:06.680Z,18.63
2022-11-26T05:20:33.719Z,18.05
2022-11-26T05:23:00.551Z,17.98
2022-11-26T05:25:29.670Z,17.88
2022-11-26T05:27:56.789Z,17.50
2022-11-26T05:30:23.638Z,16.65
2022-11-26T05:32:50.676Z,15.68
2022-11-26T05:35:17.814Z,15.45
2022-11-26T05:37:47.653Z,16.58
2022-11-26T05:40:14.637Z,16.73
2022-11-26T05:42:42.136Z,16.92
2022-11-26T05:45:09.412Z,15.10
2022-11-26T05:47:39.202Z,16.45
2022-11-26T05:50:06.889Z,16.30
2022-11-26T05:52:33.733Z,16.17
2022-11-26T05:55:00.979Z,15.18
2022-11-26T05:57:27.963Z,15.88
2022-11-26T05:59:55.055Z,16.40
2022-11-26T06:02:22.388Z,15.35
2022-11-26T06:04:49.817Z,15.60
2022-11-26T06:07:16.986Z,14.32
2022-11-26T06:09:44.490Z,14.90
2022-11-26T06:12:16.567Z,15.15
2022-11-26T06:14:45.025Z,15.30
2022-11-26T06:17:12.733Z,16.02
2022-11-26T06:19:40.994Z,15.63
2022-11-26T06:22:08.331Z,15.13
2022-11-26T06:24:35.402Z,14.43
2022-11-26T06:27:03.042Z,14.15
2022-11-26T06:29:30.417Z,14.10
2022-11-26T06:31:57.577Z,13.88
2022-11-26T06:34:24.489Z,13.60
2022-11-26T06:36:51.845Z,12.88
2022-11-26T06:39:20.331Z,14.07
2022-11-26T06:41:47.248Z,13.52
2022-11-26T06:44:15.057Z,14.25
2022-11-26T06:46:44.441Z,13.00
2022-11-26T06:49:11.890Z,12.30
2022-11-26T06:51:38.753Z,12.27
2022-11-26T06:54:05.369Z,12.43
2022-11-26T06:56:32.078Z,12.60
2022-11-26T06:58:59.123Z,12.13
2022-11-26T07:01:26.708Z,13.65
2022-11-26T07:03:53.601Z,12.55
2022-11-26T07:06:21.610Z,11.93
2022-11-26T07:08:48.828Z,12.18
2022-11-26T07:11:19.168Z,12.27
2022-11-26T07:13:45.821Z,12.43
2022-11-26T07:16:12.839Z,12.05
2022-11-26T07:18:39.608Z,12.43
2022-11-26T07:21:08.414Z,11.85
2022-11-26T07:23:35.084Z,11.90
2022-11-26T07:26:02.726Z,11.82
2022-11-26T07:28:29.436Z,11.95
2022-11-26T07:31:02.623Z,11.68
2022-11-26T07:33:29.448Z,10.82
2022-11-26T07:36:02.816Z,11.80
2022-11-26T07:38:30.036Z,12.73
2022-11-26T07:41:03.479Z,11.90
2022-11-26T07:43:30.065Z,12.23
2022-11-26T07:45:56.684Z,12.25
2022-11-26T07:48:23.284Z,12.27
2022-11-26T07:50:50.367Z,11.30
2022-11-26T07:53:16.933Z,10.25
2022-11-26T07:55:43.602Z,10.20
2022-11-26T07:58:10.232Z,10.52
2022-11-26T08:00:36.758Z,11.25
2022-11-26T08:03:03.395Z,10.65
2022-11-26T08:05:30.056Z,11.50
2022-11-26T08:07:56.750Z,10.52
2022-11-26T08:10:23.728Z,10.07
2022-11-26T08:12:50.431Z,10.25
2022-11-26T08:15:17.054Z,10.00
2022-11-26T08:17:43.628Z,10.45
2022-11-26T08:20:10.851Z,8.60
2022-11-26T08:22:37.375Z,8.55
2022-11-26T08:25:04.145Z,9.85
2022-11-26T08:27:33.226Z,9.80
2022-11-26T08:29:59.800Z,8.80
2022-11-26T08:32:26.356Z,9.18
2022-11-26T08:34:53.006Z,9.20
2022-11-26T08:37:19.613Z,8.25
2022-11-26T08:39:46.135Z,8.50
2022-11-26T08:42:12.742Z,8.80
2022-11-26T08:44:39.651Z,8.13
2022-11-26T08:47:06.593Z,10.32
2022-11-26T08:49:33.187Z,8.57
2022-11-26T08:52:00.033Z,8.52
2022-11-26T08:54:26.730Z,8.35
2022-11-26T08:56:54.741Z,7.10
2022-11-26T08:59:24.214Z,7.05
2022-11-26T09:01:51.053Z,8.13
2022-11-26T09:04:17.783Z,7.95
2022-11-26T09:06:44.421Z,7.00
2022-11-26T09:09:14.386Z,7.25
2022-11-26T09:11:50.658Z,6.97
2022-11-26T09:14:19.875Z,8.20
2022-11-26T09:16:46.756Z,7.78
2022-11-26T09:19:15.242Z,7.25
2022-11-26T09:21:41.968Z,7.72
2022-11-26T09:24:08.625Z,8.70
2022-11-26T09:26:35.677Z,6.38
2022-11-26T09:29:02.291Z,6.97
2022-11-26T09:31:29.327Z,7.47
2022-11-26T09:33:57.512Z,7.22
2022-11-26T09:36:24.214Z,7.15
2022-11-26T09:38:57.414Z,6.60
2022-11-26T09:41:35.886Z,5.78
2022-11-26T09:44:47.728Z,5.38
2022-11-26T09:47:16.121Z,5.95
2022-11-26T09:49:54.667Z,5.97
2022-11-26T09:52:23.128Z,6.40
2022-11-26T09:54:53.981Z,6.45
2022-11-26T09:57:26.484Z,5.50
2022-11-26T09:59:54.409Z,5.75
2022-11-26T10:02:21.104Z,6.82
2022-11-26T10:04:50.552Z,6.22
2022-11-26T10:07:32.700Z,6.18
2022-11-26T10:10:24.839Z,6.05
2022-11-26T10:13:19.173Z,5.38
2022-11-26T10:15:52.127Z,5.22
2022-11-26T10:18:40.364Z,5.50
2022-11-26T10:21:56.984Z,5.75
2022-11-26T10:24:27.395Z,6.65
2022-11-26T10:26:55.023Z,5.82
2022-11-26T10:29:25.478Z,6.45
2022-11-26T10:32:01.015Z,6.13
2022-11-26T10:34:39.345Z,6.18
2022-11-26T10:37:06.834Z,5.25
2022-11-26T10:39:33.493Z,5.30
2022-11-26T10:42:20.401Z,5.50
2022-11-26T10:44:48.547Z,5.93
2022-11-26T10:47:31.636Z,6.88
2022-11-26T10:50:10.299Z,5.63
2022-11-26T10:52:46.454Z,6.70
2022-11-26T10:55:18.552Z,7.25
2022-11-26T10:57:50.733Z,5.93
2022-11-26T11:00:39.791Z,6.20
2022-11-26T11:03:16.771Z,8.02
2022-11-26T11:05:44.662Z,6.80
2022-11-26T11:08:32.301Z,6.97
2022-11-26T11:11:00.753Z,7.03
2022-11-26T11:13:44.860Z,7.43
2022-11-26T11:16:12.760Z,7.35
2022-11-26T11:18:58.118Z,8.13
2022-11-26T11:21:30.054Z,8.10
2022-11-26T11:24:15.237Z,7.68
2022-11-26T11:26:44.439Z,8.48
2022-11-26T11:29:35.808Z,8.75
2022-11-26T11:32:05.159Z,7.60
2022-11-26T11:34:41.464Z,7.75
2022-11-26T11:37:21.407Z,8.40
2022-11-26T11:40:04.225Z,8.73
2022-11-26T11:42:32.489Z,8.00
2022-11-26T11:45:04.188Z,8.48
2022-11-26T11:47:37.107Z,8.75
2022-11-26T11:50:23.431Z,8.68
2022-11-26T11:53:27.419Z,8.23
2022-11-26T11:56:37.315Z,8.27
2022-11-26T11:59:59.959Z,8.43
2022-11-26T12:03:05.387Z,7.47
2022-11-26T12:05:38.764Z,8.38
2022-11-26T12:08:14.514Z,9.60
2022-11-26T12:11:04.669Z,8.90
2022-11-26T12:13:56.258Z,9.18
2022-11-26T12:16:25.301Z,9.73
2022-11-26T12:18:53.897Z,7.55
2022-11-26T12:22:02.419Z,8.38
2022-11-26T12:24:28.997Z,7.85
2022-11-26T12:27:00.448Z,8.70
2022-11-26T12:29:37.722Z,6.82
2022-11-26T12:32:17.057Z,6.75
2022-11-26T12:34:55.234Z,7.20
2022-11-26T12:37:32.122Z,7.03
2022-11-26T12:40:08.113Z,5.63
2022-11-26T12:42:42.321Z,4.80
2022-11-26T12:45:34.847Z,5.90
2022-11-26T12:48:06.143Z,4.57
2022-11-26T12:50:39.742Z,4.78
2022-11-26T12:53:47.890Z,4.03
2022-11-26T12:56:20.772Z,4.82
2022-11-26T12:58:50.154Z,5.22
2022-11-26T13:01:16.816Z,5.68
2022-11-26T13:03:43.798Z,4.75
2022-11-26T13:06:19.392Z,5.10
2022-11-26T13:09:09.367Z,4.72
2022-11-26T13:11:56.170Z,5.13
2022-11-26T13:15:15.383Z,6.38
2022-11-26T13:17:44.205Z,6.47
2022-11-26T13:20:29.883Z,5.68
2022-11-26T13:23:23.968Z,5.85
2022-11-26T13:26:11.188Z,5.90
2022-11-26T13:29:02.237Z,6.07
2022-11-26T13:31:47.253Z,5.18
2022-11-26T13:34:19.162Z,5.38
2022-11-26T13:37:16.601Z,5.43
2022-11-26T13:40:08.306Z,4.63
2022-11-26T13:43:04.643Z,5.88
2022-11-26T13:45:59.355Z,5.57
2022-11-26T13:48:42.229Z,5.68
2022-11-26T13:51:32.670Z,5.22
2022-11-26T13:54:31.371Z,5.22
2022-11-26T13:57:04.962Z,4.93
2022-11-26T13:59:31.968Z,5.88
2022-11-26T14:01:58.613Z,5.53
2022-11-26T14:04:26.436Z,6.47
2022-11-26T14:07:05.109Z,5.57
2022-11-26T14:09:55.569Z,5.53
2022-11-26T14:12:24.202Z,7.38
2022-11-26T14:14:51.500Z,5.63
2022-11-26T14:17:32.463Z,5.93
2022-11-26T14:20:02.148Z,6.75
2022-11-26T14:22:34.276Z,6.75
2022-11-26T14:25:07.463Z,6.07
2022-11-26T14:27:35.198Z,6.07
2022-11-26T14:30:08.449Z,6.57
2022-11-26T14:32:39.767Z,7.47
2022-11-26T14:35:33.573Z,8.35
2022-11-26T14:38:03.053Z,6.90
2022-11-26T14:40:32.303Z,7.60
2022-11-26T14:43:22.566Z,9.23
2022-11-26T14:46:05.069Z,8.13
2022-11-26T14:48:33.167Z,7.88
2022-11-26T14:51:00.635Z,8.75
2022-11-26T14:53:30.666Z,8.13
2022-11-26T14:55:57.651Z,7.47
2022-11-26T14:58:36.050Z,9.68
2022-11-26T15:01:07.503Z,7.30
2022-11-26T15:03:34.618Z,8.65
2022-11-26T15:06:01.350Z,9.70
2022-11-26T15:08:29.464Z,7.88
2022-11-26T15:11:05.860Z,8.15
2022-11-26T15:13:41.503Z,7.63
2022-11-26T15:16:30.856Z,8.13
2022-11-26T15:18:59.678Z,7.65
2022-11-26T15:21:27.477Z,7.13
2022-11-26T15:23:57.894Z,6.95
2022-11-26T15:26:27.919Z,7.93
2022-11-26T15:28:55.236Z,7.57
2022-11-26T15:31:22.085Z,6.82
2022-11-26T15:33:51.416Z,7.05
2022-11-26T15:36:19.223Z,6.10
2022-11-26T15:39:03.702Z,6.82
2022-11-26T15:41:31.029Z,5.70
2022-11-26T15:43:59.839Z,6.03
2022-11-26T15:46:40.017Z,5.75
2022-11-26T15:49:10.361Z,6.38
2022-11-26T15:51:51.699Z,6.25
2022-11-26T15:54:49.519Z,6.93
2022-11-26T15:57:28.891Z,6.43
2022-11-26T15:59:59.889Z,5.93
2022-11-26T16:02:28.679Z,6.50
2022-11-26T16:04:57.508Z,6.15
2022-11-26T16:07:29.541Z,6.28
2022-11-26T16:10:19.944Z,6.90
2022-11-26T16:13:06.680Z,5.32
2022-11-26T16:15:35.594Z,5.68
2022-11-26T16:20:49.610Z,6.85
2022-11-26T16:23:22.800Z,5.70
2022-11-26T16:26:09.692Z,5.95
2022-11-26T16:28:37.358Z,5.80
2022-11-26T16:31:04.732Z,5.53
2022-11-26T16:33:34.389Z,6.93
2022-11-26T16:36:01.892Z,6.35
2022-11-26T16:38:29.401Z,6.28
2022-11-26T16:41:05.464Z,5.55
2022-11-26T16:43:34.876Z,5.70
2022-11-26T16:46:02.294Z,6.50
2022-11-26T16:48:29.487Z,6.50
2022-11-26T16:51:00.115Z,6.45
2022-11-26T16:53:27.125Z,7.38
2022-11-26T16:55:54.582Z,6.35
2022-11-26T16:58:27.243Z,6.55
2022-11-26T17:00:54.923Z,7.60
2022-11-26T17:03:25.006Z,7.35
2022-11-26T17:05:55.906Z,6.97
2022-11-26T17:08:22.984Z,6.45
2022-11-26T17:10:51.039Z,9.45
2022-11-26T17:13:18.421Z,6.97
2022-11-26T17:18:28.996Z,7.95
2022-11-26T17:20:55.711Z,8.35
2022-11-26T17:23:22.410Z,8.02
2022-11-26T17:25:52.677Z,8.63
2022-11-26T17:28:23.335Z,7.43
2022-11-26T17:30:50.733Z,7.90
2022-11-26T17:33:17.903Z,8.13
2022-11-26T17:35:44.609Z,8.35
2022-11-26T17:38:17.181Z,8.77
2022-11-26T17:40:44.707Z,8.88
2022-11-26T17:43:11.397Z,9.63
2022-11-26T17:45:38.912Z,7.95
2022-11-26T17:48:06.055Z,10.30
2022-11-26T17:50:33.095Z,8.30
2022-11-26T17:52:59.780Z,8.88
2022-11-26T17:55:27.356Z,8.75
2022-11-26T17:57:55.399Z,8.13
2022-11-26T18:00:28.529Z,8.70
2022-11-26T18:02:55.451Z,9.55
2022-11-26T18:05:22.713Z,11.38
2022-11-26T18:07:50.532Z,9.88
2022-11-26T18:10:18.900Z,8.93
2022-11-26T18:12:45.618Z,9.50
2022-11-26T18:15:20.767Z,9.38
2022-11-26T18:17:50.968Z,8.98
2022-11-26T18:20:19.571Z,8.55
2022-11-26T18:22:47.029Z,8.95
2022-11-26T18:25:14.108Z,9.30
2022-11-26T18:27:40.922Z,9.82
2022-11-26T18:30:09.335Z,12.75
2022-11-26T18:32:41.474Z,9.73
2022-11-26T18:35:11.876Z,9.02
2022-11-26T18:37:39.802Z,8.02
2022-11-26T18:40:08.069Z,7.60
2022-11-26T18:42:38.510Z,8.48
2022-11-26T18:45:09.188Z,8.90
2022-11-26T18:47:35.882Z,8.00
2022-11-26T18:50:02.486Z,8.65
2022-11-26T18:52:31.268Z,8.73
2022-11-26T18:54:58.677Z,7.85
2022-11-26T18:57:25.271Z,8.55
2022-11-26T18:59:51.892Z,9.07
2022-11-26T19:02:18.772Z,8.25
2022-11-26T19:04:45.371Z,9.65
2022-11-26T19:07:13.015Z,7.43
2022-11-26T19:09:40.359Z,8.38
2022-11-26T19:12:07.361Z,9.15
2022-11-26T19:14:33.953Z,8.07
2022-11-26T19:17:00.820Z,9.40
2022-11-26T19:19:28.803Z,9.57
2022-11-26T19:22:01.017Z,9.82
2022-11-26T19:24:27.913Z,8.63
2022-11-26T19:26:54.533Z,10.23
2022-11-26T19:29:21.489Z,10.63
2022-11-26T19:31:48.146Z,10.57
2022-11-26T19:34:15.473Z,9.88
2022-11-26T19:36:42.456Z,9.27
2022-11-26T19:39:09.100Z,9.35
2022-11-26T19:41:35.697Z,8.13
2022-11-26T19:44:04.127Z,8.73
2022-11-26T19:46:31.439Z,9.55
2022-11-26T19:48:58.270Z,8.77
2022-11-26T19:51:26.506Z,9.57
2022-11-26T19:53:55.133Z,9.88
2022-11-26T19:56:27.291Z,9.70
2022-11-26T19:58:54.497Z,9.57
2022-11-26T20:01:22.245Z,10.73
2022-11-26T20:03:49.493Z,9.88
2022-11-26T20:06:21.668Z,10.48
2022-11-26T20:08:49.421Z,10.38
2022-11-26T20:11:17.628Z,11.60
2022-11-26T20:13:45.366Z,11.52
2022-11-26T20:16:16.947Z,12.07
2022-11-26T20:18:44.139Z,11.23
2022-11-26T20:21:13.786Z,11.40
2022-11-26T20:23:40.526Z,10.43
2022-11-26T20:26:34.363Z,10.70
2022-11-26T20:29:04.190Z,11.68
2022-11-26T20:31:31.363Z,10.85
2022-11-26T20:33:58.201Z,11.85
2022-11-26T20:36:24.869Z,11.30
2022-11-26T20:38:53.182Z,11.60
2022-11-26T20:41:19.981Z,9.90
2022-11-26T20:43:46.893Z,11.82
2022-11-26T20:46:14.611Z,10.77
2022-11-26T20:48:43.120Z,10.40
2022-11-26T20:51:14.361Z,10.98
2022-11-26T20:53:42.434Z,12.15
2022-11-26T20:56:09.329Z,11.40
2022-11-26T20:58:36.048Z,11.70
2022-11-26T21:01:05.964Z,11.02
2022-11-26T21:03:32.596Z,10.88
2022-11-26T21:06:03.048Z,11.65
2022-11-26T21:08:29.835Z,11.82
2022-11-26T21:10:56.716Z,13.63
2022-11-26T21:13:23.362Z,13.18
2022-11-26T21:15:51.780Z,13.05
2022-11-26T21:18:18.547Z,13.00
2022-11-26T21:20:45.280Z,12.02
2022-11-26T21:23:13.285Z,12.77
2022-11-26T21:25:43.470Z,12.23
2022-11-26T21:28:10.873Z,12.63
2022-11-26T21:30:41.743Z,13.68
2022-11-26T21:33:09.678Z,13.65
2022-11-26T21:35:37.259Z,11.95
2022-11-26T21:38:04.488Z,12.38
2022-11-26T21:40:32.454Z,13.00
2022-11-26T21:43:01.815Z,12.23
2022-11-26T21:48:03.692Z,12.13
2022-11-26T21:50:30.948Z,12.32
2022-11-26T21:52:57.561Z,10.98
2022-11-26T21:55:24.261Z,11.25
2022-11-26T21:57:50.924Z,12.77
2022-11-26T22:00:18.278Z,12.20
2022-11-26T22:02:44.996Z,11.63
2022-11-26T22:05:11.581Z,12.25
2022-11-26T22:07:38.274Z,12.95
2022-11-26T22:10:07.548Z,14.05
2022-11-26T22:12:34.168Z,12.50
2022-11-26T22:15:00.773Z,13.57
2022-11-26T22:17:27.490Z,12.75
2022-11-26T22:19:54.084Z,12.73
2022-11-26T22:22:20.776Z,12.50
2022-11-26T22:24:49.435Z,13.10
2022-11-26T22:27:16.008Z,12.40
2022-11-26T22:29:42.670Z,13.45
2022-11-26T22:32:09.319Z,13.85
2022-11-26T22:34:36.127Z,12.93
2022-11-26T22:37:02.863Z,13.90
2022-11-26T22:39:31.878Z,12.93
2022-11-26T22:41:58.480Z,16.90
2022-11-26T22:44:25.131Z,13.98
2022-11-26T22:46:51.692Z,15.05
2022-11-26T22:49:19.066Z,14.07
2022-11-26T22:51:47.455Z,15.43
2022-11-26T22:54:15.774Z,15.35
2022-11-26T22:56:42.454Z,14.20
2022-11-26T22:59:11.539Z,14.27
2022-11-26T23:01:38.642Z,12.68
2022-11-26T23:04:07.891Z,13.80
2022-11-26T23:06:35.857Z,13.73
2022-11-26T23:09:04.633Z,13.23
2022-11-26T23:11:36.314Z,13.00
2022-11-26T23:14:05.136Z,12.85
2022-11-26T23:16:31.951Z,12.23
2022-11-26T23:18:58.695Z,13.57
2022-11-26T23:21:31.025Z,12.77
2022-11-26T23:23:58.144Z,12.15
2022-11-26T23:26:28.056Z,12.60
2022-11-26T23:28:55.983Z,12.32
2022-11-26T23:31:25.175Z,12.02
2022-11-26T23:33:52.351Z,12.13
2022-11-26T23:36:19.715Z,12.45
2022-11-26T23:38:46.282Z,13.40
2022-11-26T23:41:12.876Z,12.40
2022-11-26T23:43:39.948Z,12.75
2022-11-26T23:46:31.158Z,11.23
2022-11-26T23:48:57.884Z,12.90
2022-11-26T23:51:26.779Z,12.75
2022-11-26T23:53:54.251Z,11.77
2022-11-26T23:56:28.233Z,12.82
2022-11-26T23:58:58.743Z,11.15
